Terminal Aerodrome Forecast
Issued by NWS

Home | Current Version | Previous Version | Graphics & Text | Print | Product List | Glossary On
Versions: 1 2 3 4 5 6 7 8 9 10 11 12 13 14 15 16 17 18 19 20 21 22 23 24
000
FTUS43 KGRB 201700
TAFMTW
TAF
KMTW 201735Z 2018/2118 25012G20KT P6SM VCSH BKN025 OVC090
     FM202000 27011G18KT P6SM BKN030
     FM202300 29004KT P6SM SCT100 BKN250
     FM210700 36005KT 5SM -SHRA BR SCT009 OVC015
      TEMPO 2108/2112 3SM SHRA OVC009
     FM211600 35013KT P6SM VCSH BKN020=

USA.gov is the U.S. government's official web portal to all federal, state and local government web resources and services.